^^
Station Historical Data
 
Daily Summary for January 24, 2015 Units:  English    Metric   Both
« Previous Day
Next Day »
Daily Weekly Monthly Yearly Custom
  Current: High: Low: Average:
Temperature: 48.3 °F 70.1 °F 48.3 °F 61.6 °F
Dew Point: 45.5 °F 68.1 °F 45.5 °F 56.1 °F
Humidity: 90% 96% 64% 83%
Wind Speed: 4.6mph 23.0mph 2.0mph 10.6mph
Wind Gust: 4.6mph 23.0mph - -
WindWSW - - WSW
Pressure: 30.01 in 30.01 in 29.75 in -
Precipitation: 0.54 in      
Historical Graphs
 
 
Tabular Data for January 24, 2015
Time Temperature Dew Point Pressure Wind Wind Speed Wind Gust Humidity Rainfall Rate (Hourly) solar Conditions
00:02 68.7 °F 66.0 °F 29.86 in SSE 4.6 mph 4.6 mph 91% 0.05 in 0.0 W/m2 RA
00:07 68.5 °F 65.8 °F 29.85 in South 6.9 mph 6.9 mph 91% 0.05 in 0.0 W/m2 RA
00:12 68.4 °F 65.7 °F 29.83 in SE 8.1 mph 8.1 mph 91% 0.05 in 0.0 W/m2 BKN
00:17 68.3 °F 65.9 °F 29.82 in SE 9.2 mph 9.2 mph 92% 0.08 in 0.0 W/m2 -RA
00:22 68.3 °F 65.9 °F 29.83 in SSW 4.6 mph 4.6 mph 92% 0.08 in 0.0 W/m2 -RA
00:27 68.3 °F 65.9 °F 29.83 in ESE 9.2 mph 9.2 mph 92% 0.09 in 0.0 W/m2 -RA
00:32 68.3 °F 65.9 °F 29.83 in SE 6.9 mph 6.9 mph 92% 0.08 in 0.0 W/m2 -RA
00:37 68.3 °F 65.9 °F 29.82 in SSW 3.5 mph 3.5 mph 92% 0.07 in 0.0 W/m2 -RA
00:42 68.2 °F 65.8 °F 29.82 in South 6.0 mph 6.0 mph 92% 0.06 in 0.0 W/m2 -RA
00:47 68.2 °F 65.8 °F 29.82 in SW 8.1 mph 8.1 mph 92% 0.06 in 0.0 W/m2 -RA
00:52 68.3 °F 65.9 °F 29.82 in SSW 6.9 mph 6.9 mph 92% 0.05 in 0.0 W/m2 -RA
00:57 68.2 °F 65.8 °F 29.82 in South 4.6 mph 4.6 mph 92% 0.05 in 0.0 W/m2 -RA
01:02 68.3 °F 65.9 °F 29.83 in South 5.0 mph 5.0 mph 92% 0.07 in 0.0 W/m2 -RA
01:07 68.3 °F 65.9 °F 29.83 in SW 4.6 mph 4.6 mph 92% 0.07 in 0.0 W/m2 -RA
01:12 68.4 °F 66.0 °F 29.83 in SW 11.5 mph 11.5 mph 92% 0.07 in 0.0 W/m2 -RA
01:17 68.5 °F 66.1 °F 29.82 in SW 10.4 mph 10.4 mph 92% 0.04 in 0.0 W/m2 FEW
01:22 68.7 °F 66.0 °F 29.82 in WSW 6.9 mph 6.9 mph 91% 0.04 in 0.0 W/m2 FEW
01:27 68.7 °F 66.0 °F 29.82 in SW 8.1 mph 8.1 mph 91% 0.03 in 0.0 W/m2 FEW
01:32 68.6 °F 66.2 °F 29.82 in WSW 7.0 mph 7.0 mph 92% 0.03 in 0.0 W/m2 FEW
01:37 68.6 °F 66.2 °F 29.82 in SW 8.1 mph 8.1 mph 92% 0.03 in 0.0 W/m2 FEW
01:42 68.7 °F 66.3 °F 29.81 in SSE 12.7 mph 12.7 mph 92% 0.03 in 0.0 W/m2 FEW
01:47 68.7 °F 66.3 °F 29.81 in SW 11.5 mph 11.5 mph 92% 0.03 in 0.0 W/m2 FEW
01:52 68.7 °F 66.3 °F 29.82 in WSW 6.9 mph 6.9 mph 92% 0.03 in 0.0 W/m2 FEW
01:57 68.8 °F 66.4 °F 29.81 in WSW 15.0 mph 15.0 mph 92% 0.03 in 0.0 W/m2 FEW
02:02 68.9 °F 66.2 °F 29.81 in SSW 6.9 mph 6.9 mph 91% 0.01 in 0.0 W/m2 RA
02:07 68.8 °F 66.4 °F 29.81 in SSW 5.8 mph 5.8 mph 92% 0.01 in 0.0 W/m2 RA
02:12 68.8 °F 66.4 °F 29.81 in South 12.0 mph 12.0 mph 92% 0.01 in 0.0 W/m2 FEW
02:17 68.8 °F 66.4 °F 29.81 in SSW 11.5 mph 11.5 mph 92% 0.01 in 0.0 W/m2 BKN
02:22 68.7 °F 66.3 °F 29.80 in SSE 6.9 mph 6.9 mph 92% 0.02 in 0.0 W/m2 RA
02:27 68.6 °F 66.2 °F 29.80 in SSE 5.8 mph 5.8 mph 92% 0.02 in 0.0 W/m2 RA
02:32 68.5 °F 66.4 °F 29.80 in SW 9.2 mph 9.2 mph 93% 0.02 in 0.0 W/m2 BKN
02:37 68.6 °F 66.5 °F 29.80 in SW 9.2 mph 9.2 mph 93% 0.02 in 0.0 W/m2 BKN
02:42 68.7 °F 66.6 °F 29.79 in ESE 12.7 mph 12.7 mph 93% 0.02 in 0.0 W/m2 BKN
02:47 68.7 °F 66.6 °F 29.79 in SSW 15.0 mph 15.0 mph 93% 0.03 in 0.0 W/m2 RA
02:52 68.6 °F 66.5 °F 29.79 in South 9.2 mph 9.2 mph 93% 0.03 in 0.0 W/m2 RA
02:57 68.6 °F 66.5 °F 29.79 in South 8.1 mph 8.1 mph 93% 0.03 in 0.0 W/m2 BKN
03:02 68.5 °F 66.7 °F 29.78 in SW 12.7 mph 12.7 mph 94% 0.02 in 0.0 W/m2 BKN
03:07 68.5 °F 66.7 °F 29.79 in WSW 8.0 mph 8.0 mph 94% 0.02 in 0.0 W/m2 BKN
03:12 68.5 °F 66.7 °F 29.80 in SSW 6.9 mph 6.9 mph 94% 0.02 in 0.0 W/m2 BKN
03:17 68.5 °F 66.7 °F 29.79 in SW 6.0 mph 6.0 mph 94% 0.03 in 0.0 W/m2 -RA
03:22 68.5 °F 66.7 °F 29.79 in SW 3.5 mph 3.5 mph 94% 0.02 in 0.0 W/m2 -RA
03:27 68.5 °F 67.0 °F 29.79 in SSW 8.1 mph 8.1 mph 95% 0.02 in 0.0 W/m2 -RA
03:32 68.4 °F 66.9 °F 29.78 in SSW 9.2 mph 9.2 mph 95% 0.04 in 0.0 W/m2 -RA
03:37 68.4 °F 66.9 °F 29.79 in SW 6.9 mph 6.9 mph 95% 0.06 in 0.0 W/m2 -RA
03:42 68.3 °F 66.8 °F 29.78 in West 4.0 mph 4.0 mph 95% 0.10 in 0.0 W/m2 -RA
03:47 68.3 °F 66.8 °F 29.78 in SW 9.2 mph 9.2 mph 95% 0.12 in 0.0 W/m2 -RA
03:52 68.2 °F 67.0 °F 29.78 in SSE 4.6 mph 4.6 mph 96% 0.13 in 0.0 W/m2 -RA
03:57 68.2 °F 67.0 °F 29.78 in SW 8.1 mph 8.1 mph 96% 0.13 in 0.0 W/m2 -RA
04:02 68.2 °F 67.0 °F 29.78 in SW 9.0 mph 9.0 mph 96% 0.14 in 0.0 W/m2 RA
04:07 68.2 °F 67.0 °F 29.77 in SSE 5.8 mph 5.8 mph 96% 0.14 in 0.0 W/m2 RA
04:12 68.2 °F 67.0 °F 29.77 in SE 11.5 mph 11.5 mph 96% 0.14 in 0.0 W/m2 OVC
04:17 68.2 °F 67.0 °F 29.76 in SSW 9.2 mph 9.2 mph 96% 0.13 in 0.0 W/m2 -RA
04:22 68.2 °F 67.0 °F 29.76 in South 6.9 mph 6.9 mph 96% 0.13 in 0.0 W/m2 -RA
04:27 68.2 °F 67.0 °F 29.76 in South 8.1 mph 8.1 mph 96% 0.13 in 0.0 W/m2 -RA
04:32 68.2 °F 67.0 °F 29.76 in SSE 11.5 mph 11.5 mph 96% 0.11 in 0.0 W/m2 -RA
04:37 68.3 °F 67.1 °F 29.76 in SW 15.0 mph 15.0 mph 96% 0.09 in 0.0 W/m2 -RA
04:42 68.5 °F 67.3 °F 29.76 in SSW 11.5 mph 11.5 mph 96% 0.05 in 0.0 W/m2 -RA
04:47 68.6 °F 67.4 °F 29.76 in SSE 10.4 mph 10.4 mph 96% 0.02 in 0.0 W/m2 -RA
04:52 68.6 °F 67.1 °F 29.75 in South 11.5 mph 11.5 mph 95% 0.01 in 0.0 W/m2 -RA
04:57 68.7 °F 67.5 °F 29.75 in SSE 9.2 mph 9.2 mph 96% 0.01 in 0.0 W/m2 -RA
05:02 68.8 °F 67.6 °F 29.75 in South 13.8 mph 13.8 mph 96% 0.03 in 0.0 W/m2 RA
05:07 68.9 °F 67.4 °F 29.75 in SSW 9.0 mph 9.0 mph 95% 0.03 in 0.0 W/m2 RA
05:12 69.0 °F 67.5 °F 29.75 in SW 6.9 mph 6.9 mph 95% 0.03 in 0.0 W/m2 OVC
05:17 69.1 °F 67.6 °F 29.75 in SSW 11.5 mph 11.5 mph 95% 0.03 in 0.0 W/m2 OVC
05:22 69.1 °F 67.6 °F 29.75 in SW 12.7 mph 12.7 mph 95% 0.03 in 0.0 W/m2 OVC
05:27 69.2 °F 67.7 °F 29.75 in South 11.5 mph 11.5 mph 95% 0.03 in 0.0 W/m2 OVC
05:32 69.3 °F 67.8 °F 29.75 in West 11.5 mph 11.5 mph 95% 0.03 in 0.0 W/m2 OVC
05:37 69.3 °F 67.8 °F 29.75 in SW 11.5 mph 11.5 mph 95% 0.03 in 0.0 W/m2 OVC
05:42 69.4 °F 67.9 °F 29.75 in SSW 17.3 mph 17.3 mph 95% 0.04 in 0.0 W/m2 RA
05:47 69.5 °F 67.7 °F 29.76 in South 9.2 mph 9.2 mph 94% 0.04 in 0.0 W/m2 RA
05:52 69.6 °F 67.8 °F 29.76 in SW 10.4 mph 10.4 mph 94% 0.04 in 0.0 W/m2 OVC
05:57 69.7 °F 67.9 °F 29.76 in SW 12.0 mph 12.0 mph 94% 0.04 in 0.0 W/m2 OVC
06:02 69.8 °F 68.0 °F 29.76 in SW 11.0 mph 11.0 mph 94% 0.01 in 0.0 W/m2 OVC
06:07 69.9 °F 68.1 °F 29.76 in SSW 11.5 mph 11.5 mph 94% 0.01 in 0.0 W/m2 OVC
06:12 69.9 °F 67.8 °F 29.76 in SW 11.5 mph 11.5 mph 93% 0.01 in 0.0 W/m2 OVC
06:17 69.9 °F 67.8 °F 29.76 in SSE 10.0 mph 10.0 mph 93% 0.01 in 0.0 W/m2 OVC
06:22 69.9 °F 67.8 °F 29.76 in SW 8.1 mph 8.1 mph 93% 0.01 in 0.0 W/m2 OVC
06:27 70.0 °F 67.9 °F 29.76 in SW 9.2 mph 9.2 mph 93% 0.01 in 0.0 W/m2 OVC
06:32 70.1 °F 68.0 °F 29.76 in SSW 11.5 mph 11.5 mph 93% 0.01 in 0.0 W/m2 OVC
06:37 70.1 °F 68.0 °F 29.77 in WSW 12.7 mph 12.7 mph 93% 0.01 in 0.0 W/m2 OVC
06:42 69.9 °F 68.1 °F 29.78 in WSW 9.2 mph 9.2 mph 94% 0.00 in 0.0 W/m2 OVC
06:47 68.1 °F 65.1 °F 29.78 in WNW 21.9 mph 21.9 mph 90% 0.04 in 0.0 W/m2 RA
06:52 66.8 °F 64.4 °F 29.79 in WSW 12.7 mph 12.7 mph 92% 0.04 in 0.0 W/m2 RA
06:57 66.2 °F 64.1 °F 29.79 in SW 12.7 mph 12.7 mph 93% 0.04 in 0.0 W/m2 OVC
07:02 65.6 °F 63.5 °F 29.79 in West 13.0 mph 13.0 mph 93% 0.04 in 0.0 W/m2 OVC
07:07 65.3 °F 63.5 °F 29.80 in West 9.2 mph 9.2 mph 94% 0.04 in 0.0 W/m2 OVC
07:12 65.1 °F 63.3 °F 29.80 in WSW 12.7 mph 12.7 mph 94% 0.04 in 0.0 W/m2 OVC
07:17 64.9 °F 62.8 °F 29.80 in NW 19.6 mph 19.6 mph 93% 0.11 in 0.0 W/m2 -RA
07:22 64.6 °F 62.5 °F 29.80 in SW 13.8 mph 13.8 mph 93% 0.11 in 0.0 W/m2 -RA
07:27 64.5 °F 62.4 °F 29.81 in SW 8.1 mph 8.1 mph 93% 0.11 in 0.0 W/m2 -RA
07:32 64.2 °F 62.1 °F 29.81 in WSW 11.5 mph 11.5 mph 93% 0.11 in 0.0 W/m2 OVC
07:37 63.8 °F 61.4 °F 29.82 in WNW 10.4 mph 10.4 mph 92% 0.11 in 0.0 W/m2 OVC
07:42 63.5 °F 61.1 °F 29.83 in West 18.4 mph 18.4 mph 92% 0.11 in 0.0 W/m2 OVC
07:47 63.1 °F 60.4 °F 29.83 in SW 12.7 mph 12.7 mph 91% 0.07 in 0.0 W/m2 OVC
07:52 62.6 °F 59.9 °F 29.84 in WNW 11.5 mph 11.5 mph 91% 0.07 in 0.0 W/m2 OVC
07:57 62.4 °F 59.7 °F 29.84 in WSW 11.5 mph 11.5 mph 91% 0.07 in 0.0 W/m2 OVC
08:02 62.2 °F 59.5 °F 29.84 in West 12.0 mph 12.0 mph 91% 0.14 in 0.0 W/m2 RA
08:07 62.0 °F 59.3 °F 29.85 in WSW 11.5 mph 11.5 mph 91% 0.14 in 0.0 W/m2 RA
08:12 61.8 °F 59.1 °F 29.85 in West 21.9 mph 21.9 mph 91% 0.14 in 0.0 W/m2 OVC
08:17 61.6 °F 58.9 °F 29.86 in West 12.7 mph 12.7 mph 91% 0.07 in 0.0 W/m2 -RA
08:22 61.3 °F 58.7 °F 29.86 in WNW 19.6 mph 19.6 mph 91% 0.07 in 0.0 W/m2 -RA
08:27 61.0 °F 58.7 °F 29.86 in SW 11.5 mph 11.5 mph 92% 0.07 in 0.0 W/m2 -RA
08:32 60.8 °F 58.5 °F 29.86 in West 10.4 mph 10.4 mph 92% 0.07 in 0.0 W/m2 -RA
08:37 60.8 °F 58.5 °F 29.87 in SW 11.5 mph 11.5 mph 92% 0.07 in 0.0 W/m2 -RA
08:42 60.8 °F 58.5 °F 29.87 in WNW 16.1 mph 16.1 mph 92% 0.07 in 0.0 W/m2 -RA
08:47 60.7 °F 58.1 °F 29.88 in SW 18.4 mph 18.4 mph 91% 0.07 in 0.0 W/m2 -RA
08:52 60.7 °F 58.1 °F 29.88 in NW 9.2 mph 9.2 mph 91% 0.07 in 0.0 W/m2 -RA
08:57 60.6 °F 57.3 °F 29.88 in WSW 16.1 mph 16.1 mph 89% 0.07 in 0.0 W/m2 -RA
09:02 60.5 °F 56.9 °F 29.89 in WSW 15.0 mph 15.0 mph 88% 0.07 in 0.0 W/m2 -RA
09:07 60.3 °F 56.4 °F 29.90 in West 16.1 mph 16.1 mph 87% 0.07 in 0.0 W/m2 -RA
09:12 60.2 °F 56.3 °F 29.90 in WSW 23.0 mph 23.0 mph 87% 0.07 in 0.0 W/m2 -RA
09:17 60.1 °F 56.2 °F 29.90 in West 23.0 mph 23.0 mph 87% 0.07 in 0.0 W/m2 -RA
09:22 60.0 °F 56.1 °F 29.90 in WNW 15.0 mph 15.0 mph 87% 0.07 in 0.0 W/m2 -RA
09:27 59.9 °F 56.0 °F 29.90 in WNW 11.0 mph 11.0 mph 87% 0.07 in 0.0 W/m2 -RA
09:32 59.9 °F 55.7 °F 29.90 in West 9.2 mph 9.2 mph 86% 0.07 in 0.0 W/m2 -RA
09:37 59.9 °F 55.4 °F 29.91 in NW 9.2 mph 9.2 mph 85% 0.07 in 0.0 W/m2 -RA
09:42 59.8 °F 55.3 °F 29.91 in WNW 17.3 mph 17.3 mph 85% 0.07 in 0.0 W/m2 -RA
09:47 59.6 °F 55.4 °F 29.91 in WSW 19.6 mph 19.6 mph 86% 0.07 in 0.0 W/m2 -RA
09:52 59.3 °F 55.1 °F 29.91 in West 15.0 mph 15.0 mph 86% 0.07 in 0.0 W/m2 -RA
09:57 59.2 °F 55.3 °F 29.91 in West 9.2 mph 9.2 mph 87% 0.07 in 0.0 W/m2 -RA
10:02 59.1 °F 55.2 °F 29.91 in WSW 13.0 mph 13.0 mph 87% 0.01 in 0.0 W/m2 -RA
10:07 59.1 °F 55.2 °F 29.91 in West 10.4 mph 10.4 mph 87% 0.01 in 0.0 W/m2 -RA
10:12 59.1 °F 55.2 °F 29.91 in West 10.4 mph 10.4 mph 87% 0.01 in 0.0 W/m2 -RA
10:17 59.1 °F 54.9 °F 29.91 in WSW 13.8 mph 13.8 mph 86% 0.01 in 0.0 W/m2 OVC
10:22 59.1 °F 54.9 °F 29.91 in WSW 11.5 mph 11.5 mph 86% 0.01 in 0.0 W/m2 OVC
10:27 59.1 °F 54.3 °F 29.91 in West 14.0 mph 14.0 mph 84% 0.01 in 0.0 W/m2 OVC
10:32 59.1 °F 54.6 °F 29.91 in WNW 9.0 mph 9.0 mph 85% 0.01 in 0.0 W/m2 OVC
10:37 59.1 °F 53.3 °F 29.91 in WSW 13.0 mph 13.0 mph 81% 0.01 in 0.0 W/m2 OVC
10:42 59.3 °F 53.5 °F 29.91 in WSW 11.5 mph 11.5 mph 81% 0.01 in 0.0 W/m2 OVC
10:47 59.3 °F 53.1 °F 29.91 in West 15.0 mph 15.0 mph 80% 0.01 in 0.0 W/m2 OVC
10:52 59.4 °F 52.9 °F 29.91 in WSW 15.0 mph 15.0 mph 79% 0.01 in 0.0 W/m2 OVC
10:57 59.7 °F 53.5 °F 29.91 in WNW 8.1 mph 8.1 mph 80% 0.01 in 0.0 W/m2 OVC
11:02 59.7 °F 53.2 °F 29.90 in NW 8.1 mph 8.1 mph 79% 0.00 in 0.0 W/m2 OVC
11:07 59.9 °F 52.7 °F 29.90 in WSW 19.6 mph 19.6 mph 77% 0.00 in 0.0 W/m2 OVC
11:12 60.3 °F 52.7 °F 29.90 in WSW 16.1 mph 16.1 mph 76% 0.00 in 0.0 W/m2 OVC
11:17 60.5 °F 52.5 °F 29.90 in WSW 19.6 mph 19.6 mph 75% 0.00 in 0.0 W/m2 OVC
11:22 60.8 °F 52.1 °F 29.91 in SW 20.7 mph 20.7 mph 73% 0.00 in 0.0 W/m2 OVC
11:27 60.9 °F 51.4 °F 29.90 in WSW 20.7 mph 20.7 mph 71% 0.00 in 0.0 W/m2 OVC
11:32 61.2 °F 52.1 °F 29.90 in SW 15.0 mph 15.0 mph 72% 0.00 in 0.0 W/m2 OVC
11:37 61.4 °F 51.9 °F 29.90 in WSW 11.5 mph 11.5 mph 71% 0.00 in 0.0 W/m2 OVC
11:42 61.5 °F 52.0 °F 29.90 in SW 15.0 mph 15.0 mph 71% 0.00 in 0.0 W/m2 OVC
11:47 61.7 °F 51.8 °F 29.90 in SSW 16.1 mph 16.1 mph 70% 0.00 in 0.0 W/m2 BKN
11:52 61.6 °F 51.7 °F 29.89 in West 17.3 mph 17.3 mph 70% 0.00 in 0.0 W/m2 BKN
11:57 62.0 °F 52.5 °F 29.89 in SW 16.1 mph 16.1 mph 71% 0.00 in 0.0 W/m2 BKN
12:02 61.9 °F 51.6 °F 29.89 in WSW 17.3 mph 17.3 mph 69% 0.00 in 0.0 W/m2 SCT
12:07 61.9 °F 51.6 °F 29.89 in SW 19.6 mph 19.6 mph 69% 0.00 in 0.0 W/m2 SCT
12:12 62.0 °F 51.7 °F 29.89 in WSW 15.0 mph 15.0 mph 69% 0.00 in 0.0 W/m2 SCT
12:17 62.4 °F 51.7 °F 29.89 in WSW 17.3 mph 17.3 mph 68% 0.00 in 0.0 W/m2 SCT
12:22 62.7 °F 52.0 °F 29.89 in WSW 9.0 mph 9.0 mph 68% 0.00 in 0.0 W/m2 SCT
12:27 63.1 °F 52.8 °F 29.89 in West 11.5 mph 11.5 mph 69% 0.00 in 0.0 W/m2 SCT
12:32 63.5 °F 52.3 °F 29.89 in WSW 10.0 mph 10.0 mph 67% 0.00 in 0.0 W/m2 SCT
12:37 63.5 °F 51.5 °F 29.89 in West 18.4 mph 18.4 mph 65% 0.00 in 0.0 W/m2 SCT
12:42 63.2 °F 52.1 °F 29.89 in West 18.4 mph 18.4 mph 67% 0.00 in 0.0 W/m2 SCT
12:47 63.4 °F 51.8 °F 29.89 in West 11.5 mph 11.5 mph 66% 0.00 in 0.0 W/m2 SCT
12:52 63.4 °F 51.8 °F 29.88 in WSW 18.4 mph 18.4 mph 66% 0.00 in 0.0 W/m2 SCT
12:57 63.2 °F 52.1 °F 29.88 in WNW 15.0 mph 15.0 mph 67% 0.00 in 0.0 W/m2 SCT
13:02 63.3 °F 51.3 °F 29.88 in WSW 15.0 mph 15.0 mph 65% 0.00 in 0.0 W/m2 SCT
13:07 63.0 °F 51.5 °F 29.88 in West 19.6 mph 19.6 mph 66% 0.00 in 0.0 W/m2 SCT
13:12 63.2 °F 52.5 °F 29.88 in SW 16.1 mph 16.1 mph 68% 0.00 in 0.0 W/m2 SCT
13:17 63.3 °F 52.2 °F 29.88 in WNW 17.3 mph 17.3 mph 67% 0.00 in 0.0 W/m2 FEW
13:22 63.2 °F 52.1 °F 29.88 in West 13.8 mph 13.8 mph 67% 0.00 in 0.0 W/m2 FEW
13:27 63.1 °F 51.6 °F 29.88 in West 17.3 mph 17.3 mph 66% 0.00 in 0.0 W/m2 FEW
13:32 63.1 °F 51.6 °F 29.88 in SW 15.0 mph 15.0 mph 66% 0.00 in 0.0 W/m2 FEW
13:37 62.9 °F 51.4 °F 29.88 in West 19.0 mph 19.0 mph 66% 0.00 in 0.0 W/m2 FEW
13:42 62.7 °F 51.6 °F 29.88 in SW 16.0 mph 16.0 mph 67% 0.00 in 0.0 W/m2 FEW
13:47 63.2 °F 52.1 °F 29.88 in WSW 21.0 mph 21.0 mph 67% 0.00 in 0.0 W/m2 FEW
13:52 63.2 °F 52.1 °F 29.88 in West 10.4 mph 10.4 mph 67% 0.00 in 0.0 W/m2 FEW
13:57 63.4 °F 52.2 °F 29.88 in West 7.0 mph 7.0 mph 67% 0.00 in 0.0 W/m2 FEW
14:02 63.2 °F 52.1 °F 29.88 in West 21.0 mph 21.0 mph 67% 0.00 in 0.0 W/m2 FEW
14:07 62.8 °F 51.7 °F 29.88 in WNW 18.4 mph 18.4 mph 67% 0.00 in 0.0 W/m2 FEW
14:12 62.4 °F 51.3 °F 29.88 in South 18.4 mph 18.4 mph 67% 0.00 in 0.0 W/m2 FEW
14:17 62.3 °F 51.6 °F 29.88 in South 17.3 mph 17.3 mph 68% 0.00 in 0.0 W/m2 FEW
14:22 62.2 °F 51.1 °F 29.88 in WSW 15.0 mph 15.0 mph 67% 0.00 in 0.0 W/m2 FEW
14:27 62.1 °F 51.8 °F 29.88 in South 12.7 mph 12.7 mph 69% 0.00 in 0.0 W/m2 FEW
14:32 62.6 °F 51.5 °F 29.89 in SSW 15.0 mph 15.0 mph 67% 0.00 in 0.0 W/m2 FEW
14:37 62.9 °F 51.8 °F 29.89 in WNW 11.5 mph 11.5 mph 67% 0.00 in 0.0 W/m2 FEW
14:42 62.6 °F 50.7 °F 29.89 in SW 15.0 mph 15.0 mph 65% 0.00 in 0.0 W/m2 FEW
14:47 62.2 °F 50.7 °F 29.89 in WNW 12.7 mph 12.7 mph 66% 0.00 in 0.0 W/m2 FEW
14:53 61.9 °F 50.4 °F 29.89 in WSW 15.0 mph 15.0 mph 66% 0.00 in 0.0 W/m2 FEW
14:58 61.6 °F 50.5 °F 29.89 in SW 18.4 mph 18.4 mph 67% 0.00 in 0.0 W/m2 FEW
15:03 61.8 °F 51.1 °F 29.89 in West 10.4 mph 10.4 mph 68% 0.00 in 0.0 W/m2 FEW
15:08 61.8 °F 50.7 °F 29.89 in West 15.0 mph 15.0 mph 67% 0.00 in 0.0 W/m2 FEW
15:13 61.8 °F 50.3 °F 29.89 in WSW 11.0 mph 11.0 mph 66% 0.00 in 0.0 W/m2 FEW
15:18 61.8 °F 50.3 °F 29.89 in SW 13.8 mph 13.8 mph 66% 0.00 in 0.0 W/m2 CLR
15:23 61.8 °F 49.9 °F 29.89 in West 13.8 mph 13.8 mph 65% 0.00 in 0.0 W/m2 CLR
15:28 61.9 °F 50.4 °F 29.89 in West 17.3 mph 17.3 mph 66% 0.00 in 0.0 W/m2 CLR
15:33 62.0 °F 50.9 °F 29.89 in WNW 12.7 mph 12.7 mph 67% 0.00 in 0.0 W/m2 CLR
15:38 61.7 °F 49.8 °F 29.89 in WSW 19.6 mph 19.6 mph 65% 0.00 in 0.0 W/m2 CLR
15:43 61.5 °F 49.2 °F 29.89 in WSW 17.3 mph 17.3 mph 64% 0.00 in 0.0 W/m2 CLR
15:48 61.5 °F 49.6 °F 29.89 in WSW 17.3 mph 17.3 mph 65% 0.00 in 0.0 W/m2 CLR
15:53 61.4 °F 49.9 °F 29.89 in WNW 13.8 mph 13.8 mph 66% 0.00 in 0.0 W/m2 CLR
15:58 61.4 °F 49.9 °F 29.89 in WSW 12.7 mph 12.7 mph 66% 0.00 in 0.0 W/m2 CLR
16:03 61.6 °F 50.1 °F 29.89 in NW 12.7 mph 12.7 mph 66% 0.00 in 0.0 W/m2 CLR
16:08 61.4 °F 49.9 °F 29.90 in WNW 12.0 mph 12.0 mph 66% 0.00 in 0.0 W/m2 CLR
16:13 61.4 °F 49.9 °F 29.90 in WNW 6.9 mph 6.9 mph 66% 0.00 in 0.0 W/m2 CLR
16:18 61.3 °F 49.0 °F 29.90 in WSW 13.0 mph 13.0 mph 64% 0.00 in 0.0 W/m2 CLR
16:23 61.2 °F 49.7 °F 29.90 in West 4.6 mph 4.6 mph 66% 0.00 in 0.0 W/m2 CLR
16:28 61.0 °F 49.1 °F 29.90 in SW 11.5 mph 11.5 mph 65% 0.00 in 0.0 W/m2 CLR
16:33 60.7 °F 48.4 °F 29.90 in WNW 12.0 mph 12.0 mph 64% 0.00 in 0.0 W/m2 CLR
16:38 60.5 °F 49.5 °F 29.90 in West 12.0 mph 12.0 mph 67% 0.00 in 0.0 W/m2 CLR
16:43 60.5 °F 49.1 °F 29.90 in NNW 10.4 mph 10.4 mph 66% 0.00 in 0.0 W/m2 CLR
16:48 60.3 °F 48.9 °F 29.90 in WNW 13.8 mph 13.8 mph 66% 0.00 in 0.0 W/m2 CLR
16:53 60.4 °F 49.8 °F 29.90 in WSW 10.4 mph 10.4 mph 68% 0.00 in 0.0 W/m2 CLR
16:58 60.0 °F 49.0 °F 29.90 in WSW 11.5 mph 11.5 mph 67% 0.00 in 0.0 W/m2 CLR
17:03 59.8 °F 49.6 °F 29.90 in WSW 9.2 mph 9.2 mph 69% 0.00 in 0.0 W/m2 CLR
17:08 59.6 °F 49.4 °F 29.90 in WSW 13.8 mph 13.8 mph 69% 0.00 in 0.0 W/m2 CLR
17:13 59.3 °F 49.1 °F 29.91 in WSW 9.2 mph 9.2 mph 69% 0.00 in 0.0 W/m2 CLR
17:18 59.3 °F 49.1 °F 29.91 in WNW 6.9 mph 6.9 mph 69% 0.00 in 0.0 W/m2 CLR
17:23 59.1 °F 49.3 °F 29.90 in West 5.8 mph 5.8 mph 70% 0.00 in 0.0 W/m2 CLR
17:28 58.8 °F 49.0 °F 29.91 in West 5.8 mph 5.8 mph 70% 0.00 in 0.0 W/m2 CLR
17:33 58.4 °F 49.0 °F 29.91 in WSW 4.6 mph 4.6 mph 71% 0.00 in 0.0 W/m2 CLR
17:38 58.1 °F 48.7 °F 29.91 in WSW 6.9 mph 6.9 mph 71% 0.00 in 0.0 W/m2 CLR
17:43 57.6 °F 48.6 °F 29.91 in West 3.5 mph 3.5 mph 72% 0.00 in 0.0 W/m2 CLR
17:48 57.0 °F 48.4 °F 29.91 in West 8.1 mph 8.1 mph 73% 0.00 in 0.0 W/m2 CLR
17:53 56.7 °F 48.5 °F 29.92 in WSW 8.1 mph 8.1 mph 74% 0.00 in 0.0 W/m2 CLR
17:58 56.3 °F 48.1 °F 29.92 in West 8.1 mph 8.1 mph 74% 0.00 in 0.0 W/m2 CLR
18:03 56.1 °F 48.3 °F 29.92 in WSW 5.8 mph 5.8 mph 75% 0.00 in 0.0 W/m2 CLR
18:08 55.8 °F 48.3 °F 29.92 in WSW 9.2 mph 9.2 mph 76% 0.00 in 0.0 W/m2 CLR
18:13 55.5 °F 48.1 °F 29.93 in West 5.8 mph 5.8 mph 76% 0.00 in 0.0 W/m2 CLR
18:18 55.3 °F 47.9 °F 29.93 in NW 5.8 mph 5.8 mph 76% 0.00 in 0.0 W/m2 CLR
18:23 55.1 °F 48.0 °F 29.93 in WSW 4.6 mph 4.6 mph 77% 0.00 in 0.0 W/m2 CLR
18:28 54.9 °F 48.2 °F 29.93 in WNW 4.6 mph 4.6 mph 78% 0.00 in 0.0 W/m2 CLR
18:33 54.7 °F 48.0 °F 29.93 in West 5.0 mph 5.0 mph 78% 0.00 in 0.0 W/m2 CLR
18:38 54.6 °F 47.9 °F 29.94 in WSW 7.0 mph 7.0 mph 78% 0.00 in 0.0 W/m2 CLR
18:43 54.4 °F 48.0 °F 29.94 in West 5.8 mph 5.8 mph 79% 0.00 in 0.0 W/m2 CLR
18:48 54.2 °F 47.8 °F 29.95 in SSW 5.8 mph 5.8 mph 79% 0.00 in 0.0 W/m2 CLR
18:53 54.0 °F 47.6 °F 29.95 in West 8.1 mph 8.1 mph 79% 0.00 in 0.0 W/m2 CLR
18:58 53.8 °F 47.8 °F 29.95 in WSW 9.2 mph 9.2 mph 80% 0.00 in 0.0 W/m2 CLR
19:03 53.6 °F 47.6 °F 29.95 in West 4.6 mph 4.6 mph 80% 0.00 in 0.0 W/m2 CLR
19:08 53.4 °F 47.4 °F 29.95 in WSW 8.0 mph 8.0 mph 80% 0.00 in 0.0 W/m2 CLR
19:13 53.2 °F 47.5 °F 29.95 in West 5.8 mph 5.8 mph 81% 0.00 in 0.0 W/m2 CLR
19:18 53.1 °F 47.4 °F 29.95 in SW 6.9 mph 6.9 mph 81% 0.00 in 0.0 W/m2 CLR
19:23 52.9 °F 47.6 °F 29.95 in SW 4.6 mph 4.6 mph 82% 0.00 in 0.0 W/m2 CLR
19:28 52.8 °F 47.5 °F 29.95 in NW 6.9 mph 6.9 mph 82% 0.00 in 0.0 W/m2 CLR
19:33 52.6 °F 47.6 °F 29.95 in West 3.5 mph 3.5 mph 83% 0.00 in 0.0 W/m2 CLR
19:38 52.5 °F 47.5 °F 29.95 in WSW 6.9 mph 6.9 mph 83% 0.00 in 0.0 W/m2 CLR
19:43 52.3 °F 47.6 °F 29.95 in West 6.9 mph 6.9 mph 84% 0.00 in 0.0 W/m2 CLR
19:48 52.2 °F 47.5 °F 29.96 in WSW 6.9 mph 6.9 mph 84% 0.00 in 0.0 W/m2 CLR
19:53 52.0 °F 47.3 °F 29.96 in West 5.8 mph 5.8 mph 84% 0.00 in 0.0 W/m2 CLR
19:58 51.9 °F 47.2 °F 29.96 in WNW 5.8 mph 5.8 mph 84% 0.00 in 0.0 W/m2 CLR
20:03 51.8 °F 47.4 °F 29.97 in SW 6.0 mph 6.0 mph 85% 0.00 in 0.0 W/m2 CLR
20:08 51.8 °F 47.4 °F 29.97 in WSW 4.0 mph 4.0 mph 85% 0.00 in 0.0 W/m2 CLR
20:13 51.6 °F 47.2 °F 29.97 in WSW 9.0 mph 9.0 mph 85% 0.00 in 0.0 W/m2 CLR
20:18 51.6 °F 47.2 °F 29.97 in WSW 5.8 mph 5.8 mph 85% 0.00 in 0.0 W/m2 CLR
20:23 51.5 °F 47.1 °F 29.97 in West 3.5 mph 3.5 mph 85% 0.00 in 0.0 W/m2 CLR
20:28 51.3 °F 46.9 °F 29.97 in West 6.9 mph 6.9 mph 85% 0.00 in 0.0 W/m2 CLR
20:33 51.2 °F 47.2 °F 29.98 in WSW 3.5 mph 3.5 mph 86% 0.00 in 0.0 W/m2 CLR
20:38 51.0 °F 47.0 °F 29.98 in SW 6.9 mph 6.9 mph 86% 0.00 in 0.0 W/m2 CLR
20:43 50.9 °F 47.2 °F 29.98 in WNW 5.8 mph 5.8 mph 87% 0.00 in 0.0 W/m2 CLR
20:48 50.8 °F 47.4 °F 29.99 in WSW 6.0 mph 6.0 mph 88% 0.00 in 0.0 W/m2 CLR
20:53 50.6 °F 46.9 °F 29.99 in West 3.5 mph 3.5 mph 87% 0.00 in 0.0 W/m2 CLR
20:58 50.5 °F 47.1 °F 29.99 in WSW 3.5 mph 3.5 mph 88% 0.00 in 0.0 W/m2 CLR
21:03 50.3 °F 46.9 °F 29.99 in West 3.5 mph 3.5 mph 88% 0.00 in 0.0 W/m2 CLR
21:08 50.2 °F 47.1 °F 29.99 in WSW 2.0 mph 2.0 mph 89% 0.00 in 0.0 W/m2 CLR
21:13 50.0 °F 46.9 °F 29.99 in WSW 3.5 mph 3.5 mph 89% 0.00 in 0.0 W/m2 CLR
21:18 49.9 °F 46.8 °F 29.99 in SW 3.5 mph 3.5 mph 89% 0.00 in 0.0 W/m2 CLR
21:23 49.8 °F 46.7 °F 30.00 in WNW 4.0 mph 4.0 mph 89% 0.00 in 0.0 W/m2 CLR
21:28 49.7 °F 46.6 °F 30.00 in West 4.6 mph 4.6 mph 89% 0.00 in 0.0 W/m2 CLR
21:33 49.6 °F 46.8 °F 30.00 in West 5.8 mph 5.8 mph 90% 0.00 in 0.0 W/m2 CLR
21:38 49.5 °F 46.7 °F 30.00 in WSW 3.5 mph 3.5 mph 90% 0.00 in 0.0 W/m2 CLR
21:43 49.4 °F 46.6 °F 30.00 in West 3.5 mph 3.5 mph 90% 0.00 in 0.0 W/m2 CLR
21:48 49.2 °F 46.4 °F 30.00 in West 2.3 mph 2.4 mph 90% 0.00 in 0.0 W/m2 CLR
21:53 49.1 °F 46.3 °F 30.00 in West 3.5 mph 3.5 mph 90% 0.00 in 0.0 W/m2 CLR
21:58 49.0 °F 46.5 °F 30.00 in WSW 4.0 mph 4.0 mph 91% 0.00 in 0.0 W/m2 CLR
22:03 48.9 °F 46.4 °F 30.00 in West 2.0 mph 2.0 mph 91% 0.00 in 0.0 W/m2 CLR
22:08 48.8 °F 46.3 °F 30.00 in WSW 2.3 mph 2.3 mph 91% 0.00 in 0.0 W/m2 CLR
22:13 48.7 °F 46.2 °F 30.01 in West 3.0 mph 3.0 mph 91% 0.00 in 0.0 W/m2 CLR
22:18 48.6 °F 46.1 °F 30.01 in WSW 3.5 mph 3.5 mph 91% 0.00 in 0.0 W/m2 CLR
22:23 48.5 °F 45.7 °F 30.01 in WSW 4.6 mph 4.6 mph 90% 0.00 in 0.0 W/m2 CLR
22:28 48.5 °F 45.7 °F 30.01 in WSW 9.2 mph 9.2 mph 90% 0.00 in 0.0 W/m2 CLR
22:33 48.4 °F 45.6 °F 30.01 in WNW 4.6 mph 4.6 mph 90% 0.00 in 0.0 W/m2 CLR
22:38 48.4 °F 45.6 °F 30.01 in WSW 3.5 mph 3.5 mph 90% 0.00 in 0.0 W/m2 CLR
22:43 48.3 °F 45.5 °F 30.01 in WSW 4.6 mph 4.6 mph 90% 0.00 in 0.0 W/m2 CLR
Lake Mary, FL, USA
Compliments of Weather Underground